Sunday, December 16, 2018, 3:08 PM GMT
Back to Local

CYPQ, Peterborough Airport

Location: , , Canada Lat: 44.233
Local Time: 3:08 PM GMT (15:08 GMT) Lon: -78.367
Time Zone: GMT Elev: 626 ft

Show me the last for .
Show Decoded

2018-12-16 14:00 METAR CYPQ 161400Z AUTO 17003KT 030V200 9SM BKN180 BKN200 M01/M01 A3009 RMK
                 SLP200 =
2018-12-16 13:00 METAR CYPQ 161300Z AUTO 00000KT 9SM BKN160 OVC180 M02/M02 A3010 RMK SLP203 =
2018-12-16 12:00 METAR CYPQ 161200Z AUTO 01005KT 9SM OVC190 M02/M02 A3009 RMK SLP201 =
2018-12-16 11:00 METAR CYPQ 161100Z AUTO 03005KT 360V060 9SM BKN210 OVC230 M02/M02 A3011 RMK
                 SLP206 =
2018-12-16 10:00 METAR CYPQ 161000Z AUTO 03005KT 9SM BKN240 M02/M03 A3011 RMK SLP208 =
2018-12-16 09:00 METAR CYPQ 160900Z AUTO 05004KT 9SM BKN210 M03/M03 A3012 RMK SLP211 =
2018-12-16 08:00 METAR CYPQ 160800Z AUTO 06005KT 9SM OVC210 M02/M02 A3014 RMK SLP217 =
2018-12-16 07:00 METAR CYPQ 160700Z AUTO VRB02KT 9SM CLR M02/M02 A3017 RMK SLP225 =
2018-12-16 06:00 METAR CYPQ 160600Z AUTO 05006KT 9SM CLR M02/M02 A3017 RMK PRESFR SLP227 =
2018-12-16 05:01 METAR CYPQ 160501Z AUTO 04004KT 7SM SCT220 OVC240 M03/M03 A3022 RMK SLP243 =
2018-12-16 05:00 METAR CYPQ 160500Z AUTO 04004KT 5SM BR SCT220 OVC240 M03/M03 A3022 RMK SLP243 =
2018-12-16 04:33 METAR CYPQ 160433Z AUTO VRB02KT 5SM BR OVC230 M03/M03 A3023 RMK SLP249 =
2018-12-16 04:06 METAR CYPQ 160406Z AUTO VRB02KT 6SM BR BKN230 BKN250 M02/M02 A3024 RMK SLP251 =
2018-12-16 04:04 METAR CYPQ 160404Z AUTO 06002KT 3SM BR BKN230 BKN250 M02/M02 A3024 RMK SLP251 =
2018-12-16 04:03 METAR CYPQ 160403Z AUTO 05002KT 2 1/4SM BR BKN230 M02/M02 A3024 RMK SLP250 =
2018-12-16 04:00 METAR CYPQ 160400Z AUTO 04002KT 3/4SM BR BKN230 M02/M02 A3024 RMK SLP250 =
2018-12-16 03:58 METAR CYPQ 160358Z AUTO 04002KT 5/8SM BR BKN230 M02/M02 A3024 RMK SLP250 =
2018-12-16 03:11 METAR CYPQ 160311Z AUTO 00000KT 1/2SM FZFG BKN230 BKN250 M03/M03 A3024 RMK
                 SLP252 =
2018-12-16 03:00 METAR CYPQ 160300Z AUTO 00000KT 3/4SM BR BKN230 BKN250 M03/M03 A3025 RMK SLP253
                 =
2018-12-16 02:47 METAR CYPQ 160247Z AUTO VRB02KT 1 1/4SM BR BKN240 M03/M03 A3025 RMK SLP255 =
2018-12-16 02:35 METAR CYPQ 160235Z AUTO 00000KT 2SM BR BKN230 BKN250 M03/M03 A3025 RMK VIS VRB
                 3/4-3 SLP255 =
2018-12-16 02:32 METAR CYPQ 160232Z AUTO 00000KT 2 1/2SM BR BKN240 M02/M02 A3025 RMK SLP255 =
2018-12-16 02:00 METAR CYPQ 160200Z AUTO VRB02KT 5SM BR SCT240 M01/M01 A3024 RMK SLP252 =
2018-12-16 01:52 METAR CYPQ 160152Z AUTO 16002KT 5SM BR FEW230 M02/M02 A3025 RMK SLP255 =
2018-12-16 01:36 METAR CYPQ 160136Z AUTO 17003KT 6SM BR SCT240 M02/M02 A3025 RMK SLP255 =
2018-12-16 01:24 METAR CYPQ 160124Z AUTO 00000KT 5SM BR BKN240 M02/M02 A3024 RMK SLP252 =
2018-12-16 01:08 METAR CYPQ 160108Z AUTO 31003KT 290V030 6SM BR BKN240 M02/M02 A3024 RMK SLP250 =
2018-12-16 01:00 METAR CYPQ 160100Z AUTO VRB02KT 5SM BR BKN240 M03/M03 A3024 RMK PRESFR SLP250 =
2018-12-16 00:41 METAR CYPQ 160041Z AUTO VRB02KT 4SM BR BKN240 M02/M02 A3026 RMK SLP257 =
2018-12-16 00:00 METAR CYPQ 160000Z AUTO 00000KT 9SM FEW240 M01/M01 A3024 RMK SLP252 =
2018-12-15 23:00 METAR CYPQ 152300Z AUTO 02004KT 9SM BKN250 00/M00 A3025 RMK SLP252 =
2018-12-15 22:00 METAR CYPQ 152200Z AUTO 02005KT 9SM CLR 00/M01 A3023 RMK SLP245 =
2018-12-15 21:00 METAR CYPQ 152100Z AUTO 05003KT 9SM CLR 02/00 A3021 RMK SLP241 =
2018-12-15 20:21 METAR CYPQ 152021Z AUTO 06004KT 9SM SCT020 03/00 A3021 RMK SLP238 =
2018-12-15 20:17 METAR CYPQ 152017Z AUTO 07004KT 9SM BKN020 03/00 A3021 RMK SLP239 =
2018-12-15 20:00 METAR CYPQ 152000Z AUTO 07006KT 9SM CLR 03/00 A3021 RMK SLP238 =
2018-12-15 19:00 METAR CYPQ 151900Z AUTO 09005KT 060V130 9SM CLR 04/00 A3021 RMK SLP239 =
2018-12-15 18:00 METAR CYPQ 151800Z AUTO 08004KT 030V110 9SM FEW016 04/01 A3020 RMK SLP237 =
2018-12-15 17:00 METAR CYPQ 151700Z AUTO 07004KT 040V120 9SM FEW014 03/01 A3022 RMK SLP242 =
2018-12-15 16:00 METAR CYPQ 151600Z AUTO 07002KT 9SM CLR 02/01 A3023 RMK SLP245 =

Support USWX by starting your Amazon purchase here.